createdAt,value
2018-03-30T00:00:09.711Z,1.00
2018-03-30T00:01:05.349Z,1.00
2018-03-30T00:02:08.512Z,1.00
2018-03-30T00:03:05.918Z,1.00
2018-03-30T00:04:07.910Z,1.00
2018-03-30T00:05:07.844Z,1.00
2018-03-30T00:06:05.370Z,1.00
2018-03-30T00:07:05.909Z,1.00
2018-03-30T00:08:05.387Z,1.00
2018-03-30T00:09:06.120Z,1.00
2018-03-30T00:10:05.799Z,1.00
2018-03-30T00:11:10.317Z,1.00
2018-03-30T00:12:05.788Z,0.90
2018-03-30T00:13:05.438Z,0.90
2018-03-30T00:14:05.877Z,0.90
2018-03-30T00:15:05.408Z,0.90
2018-03-30T00:16:05.311Z,0.90
2018-03-30T00:17:11.154Z,0.90
2018-03-30T00:18:05.613Z,0.90
2018-03-30T00:19:08.220Z,0.90
2018-03-30T00:20:08.201Z,0.90
2018-03-30T00:21:08.115Z,0.90
2018-03-30T00:22:06.003Z,0.90
2018-03-30T00:23:08.641Z,0.80
2018-03-30T00:24:05.516Z,0.80
2018-03-30T00:25:08.646Z,0.80
2018-03-30T00:26:05.953Z,0.80
2018-03-30T00:27:05.779Z,0.80
2018-03-30T00:28:05.301Z,0.80
2018-03-30T00:29:06.112Z,0.80
2018-03-30T00:30:05.651Z,0.80
2018-03-30T00:31:07.956Z,0.80
2018-03-30T00:32:05.424Z,0.80
2018-03-30T00:33:05.894Z,0.00
2018-03-30T00:34:05.351Z,0.80
2018-03-30T00:35:05.944Z,0.80
2018-03-30T00:36:06.216Z,0.80
2018-03-30T00:37:05.844Z,0.80
2018-03-30T00:38:05.878Z,0.80
2018-03-30T00:39:05.677Z,0.80
2018-03-30T00:40:07.759Z,0.80
2018-03-30T00:41:06.206Z,0.80
2018-03-30T00:42:05.830Z,0.80
2018-03-30T00:43:05.203Z,0.80
2018-03-30T00:44:10.381Z,0.80
2018-03-30T00:45:05.706Z,0.70
2018-03-30T00:46:07.840Z,0.80
2018-03-30T00:47:08.534Z,0.70
2018-03-30T00:48:05.938Z,0.70
2018-03-30T00:49:08.752Z,0.80
2018-03-30T00:50:06.275Z,0.70
2018-03-30T00:51:05.727Z,0.70
2018-03-30T00:52:12.947Z,0.70
2018-03-30T00:53:07.911Z,0.70
2018-03-30T00:54:08.422Z,0.70
2018-03-30T00:55:08.415Z,0.70
2018-03-30T00:56:08.417Z,0.60
2018-03-30T00:57:05.810Z,0.60
2018-03-30T00:58:08.047Z,0.60
2018-03-30T00:59:10.536Z,0.60
2018-03-30T01:00:05.961Z,0.60
2018-03-30T01:01:05.446Z,0.60
2018-03-30T01:02:05.504Z,0.60
2018-03-30T01:03:05.516Z,0.60
2018-03-30T01:04:10.297Z,0.60
2018-03-30T01:05:05.744Z,0.60
2018-03-30T01:06:05.264Z,0.60
2018-03-30T01:07:05.865Z,0.60
2018-03-30T01:08:05.463Z,0.50
2018-03-30T01:09:06.205Z,0.50
2018-03-30T01:10:05.766Z,0.60
2018-03-30T01:11:10.402Z,0.50
2018-03-30T01:12:05.529Z,0.50
2018-03-30T01:13:08.766Z,0.50
2018-03-30T01:14:07.814Z,0.50
2018-03-30T01:15:05.297Z,0.50
2018-03-30T01:16:06.163Z,0.50
2018-03-30T01:17:08.301Z,0.50
2018-03-30T01:18:10.569Z,0.50
2018-03-30T01:19:06.219Z,0.50
2018-03-30T01:20:07.987Z,0.50
2018-03-30T01:21:05.324Z,0.50
2018-03-30T01:22:06.156Z,0.40
2018-03-30T01:23:06.219Z,0.40
2018-03-30T01:24:08.330Z,0.50
2018-03-30T01:25:10.862Z,0.40
2018-03-30T01:26:10.368Z,0.40
2018-03-30T01:27:05.860Z,0.40
2018-03-30T01:28:05.427Z,0.40
2018-03-30T01:29:07.753Z,0.40
2018-03-30T01:30:05.356Z,0.40
2018-03-30T01:31:05.936Z,0.40
2018-03-30T01:32:09.177Z,0.40
2018-03-30T01:33:05.826Z,0.40
2018-03-30T01:34:05.377Z,0.40
2018-03-30T01:35:05.814Z,0.40
2018-03-30T01:36:08.009Z,0.30
2018-03-30T01:37:08.004Z,0.40
2018-03-30T01:38:10.432Z,0.40
2018-03-30T01:39:05.925Z,0.40
2018-03-30T01:40:05.578Z,0.40
2018-03-30T01:41:05.099Z,0.30
2018-03-30T01:42:05.657Z,0.40
2018-03-30T01:43:05.300Z,0.30
2018-03-30T01:44:08.434Z,0.30
2018-03-30T01:45:08.392Z,0.30
2018-03-30T01:46:05.726Z,0.30
2018-03-30T01:47:05.224Z,0.30
2018-03-30T01:48:05.482Z,0.30
2018-03-30T01:49:07.750Z,0.30
2018-03-30T01:50:07.810Z,0.30
2018-03-30T01:51:07.752Z,0.20
2018-03-30T01:52:05.596Z,0.20
2018-03-30T01:53:05.212Z,0.30
2018-03-30T01:54:08.518Z,0.20
2018-03-30T01:55:05.919Z,0.20
2018-03-30T01:56:05.506Z,0.20
2018-03-30T01:57:10.227Z,0.20
2018-03-30T01:58:05.706Z,0.20
2018-03-30T01:59:07.799Z,0.10
2018-03-30T02:00:10.749Z,0.20
2018-03-30T02:01:06.035Z,0.10
2018-03-30T02:02:05.570Z,0.20
2018-03-30T02:03:05.432Z,0.20
2018-03-30T02:04:05.897Z,0.20
2018-03-30T02:05:10.498Z,0.20
2018-03-30T02:06:08.560Z,0.20
2018-03-30T02:07:05.984Z,0.20
2018-03-30T02:08:05.531Z,0.20
2018-03-30T02:09:05.272Z,0.20
2018-03-30T02:10:10.896Z,0.10
2018-03-30T02:11:10.371Z,0.20
2018-03-30T02:12:10.517Z,0.20
2018-03-30T02:13:05.914Z,0.10
2018-03-30T02:14:05.752Z,0.20
2018-03-30T02:15:05.348Z,0.10
2018-03-30T02:16:05.938Z,0.10
2018-03-30T02:17:05.385Z,0.10
2018-03-30T02:18:05.876Z,0.10
2018-03-30T02:19:08.193Z,0.10
2018-03-30T02:20:08.148Z,0.10
2018-03-30T02:21:05.646Z,0.10
2018-03-30T02:22:05.277Z,0.10
2018-03-30T02:23:06.162Z,0.10
2018-03-30T02:24:05.737Z,0.10
2018-03-30T02:25:07.914Z,0.10
2018-03-30T02:26:05.440Z,0.00
2018-03-30T02:27:06.068Z,0.00
2018-03-30T02:28:05.935Z,0.00
2018-03-30T02:29:05.485Z,0.00
2018-03-30T02:30:05.319Z,0.00
2018-03-30T02:31:08.362Z,0.00
2018-03-30T02:32:05.871Z,0.00
2018-03-30T02:33:05.455Z,0.00
2018-03-30T02:34:06.113Z,-0.10
2018-03-30T02:35:06.010Z,-0.10
2018-03-30T02:36:05.548Z,-0.10
2018-03-30T02:37:05.346Z,-0.10
2018-03-30T02:38:05.960Z,-0.10
2018-03-30T02:39:13.339Z,-0.10
2018-03-30T02:40:05.935Z,-0.10
2018-03-30T02:41:05.402Z,-0.10
2018-03-30T02:42:05.355Z,-0.10
2018-03-30T02:43:06.228Z,-0.10
2018-03-30T02:44:05.770Z,-0.10
2018-03-30T02:45:10.469Z,-0.10
2018-03-30T02:46:05.889Z,-0.10
2018-03-30T02:47:08.044Z,-0.10
2018-03-30T02:48:10.869Z,-0.10
2018-03-30T02:49:07.811Z,-0.10
2018-03-30T02:50:07.714Z,-0.10
2018-03-30T02:51:05.350Z,-0.10
2018-03-30T02:52:08.537Z,0.00
2018-03-30T02:53:08.444Z,0.00
2018-03-30T02:54:05.826Z,0.00
2018-03-30T02:55:07.896Z,0.00
2018-03-30T02:56:05.503Z,-0.10
2018-03-30T02:57:05.245Z,0.00
2018-03-30T02:58:05.847Z,0.00
2018-03-30T02:59:08.008Z,-0.10
2018-03-30T03:00:05.374Z,-0.10
2018-03-30T03:01:08.605Z,-0.20
2018-03-30T03:02:05.999Z,-0.10
2018-03-30T03:03:05.534Z,-0.10
2018-03-30T03:04:07.873Z,-0.20
2018-03-30T03:05:05.375Z,-0.20
2018-03-30T03:06:05.942Z,-0.20
2018-03-30T03:07:09.097Z,-0.20
2018-03-30T03:08:05.473Z,-0.20
2018-03-30T03:09:05.213Z,-0.20
2018-03-30T03:10:08.020Z,-0.20
2018-03-30T03:11:05.529Z,-0.20
2018-03-30T03:12:05.101Z,-0.20
2018-03-30T03:13:13.445Z,-0.20
2018-03-30T03:14:10.922Z,-0.20
2018-03-30T03:15:05.294Z,-0.20
2018-03-30T03:16:05.987Z,-0.20
2018-03-30T03:17:05.618Z,-0.20
2018-03-30T03:18:10.392Z,-0.20
2018-03-30T03:19:08.382Z,-0.30
2018-03-30T03:20:05.829Z,-0.30
2018-03-30T03:21:05.537Z,-0.30
2018-03-30T03:22:06.182Z,-0.30
2018-03-30T03:23:05.300Z,-0.30
2018-03-30T03:24:05.968Z,-0.30
2018-03-30T03:25:05.509Z,-0.30
2018-03-30T03:26:06.056Z,-0.30
2018-03-30T03:27:08.360Z,-0.30
2018-03-30T03:28:05.779Z,-0.30
2018-03-30T03:29:05.344Z,-0.30
2018-03-30T03:30:08.551Z,-0.30
2018-03-30T03:31:08.101Z,-0.30
2018-03-30T03:32:10.559Z,-0.30
2018-03-30T03:33:08.524Z,-0.30
2018-03-30T03:34:05.879Z,-0.30
2018-03-30T03:35:10.516Z,-0.30
2018-03-30T03:36:08.537Z,-0.30
2018-03-30T03:37:08.551Z,-0.30
2018-03-30T03:38:06.011Z,-0.30
2018-03-30T03:39:08.755Z,-0.30
2018-03-30T03:40:08.108Z,-0.30
2018-03-30T03:41:06.022Z,-0.30
2018-03-30T03:42:05.625Z,-0.30
2018-03-30T03:43:05.369Z,-0.40
2018-03-30T03:44:05.825Z,-0.40
2018-03-30T03:45:05.524Z,-0.40
2018-03-30T03:46:08.756Z,-0.40
2018-03-30T03:47:05.327Z,-0.40
2018-03-30T03:48:06.108Z,-0.40
2018-03-30T03:49:05.615Z,-0.30
2018-03-30T03:50:10.257Z,-0.40
2018-03-30T03:51:05.832Z,-0.30
2018-03-30T03:52:10.584Z,-0.30
2018-03-30T03:53:05.897Z,-0.40
2018-03-30T03:54:05.508Z,-0.40
2018-03-30T03:55:11.201Z,-0.40
2018-03-30T03:56:05.622Z,-0.40
2018-03-30T03:57:05.235Z,-0.40
2018-03-30T03:58:05.385Z,-0.40
2018-03-30T03:59:11.076Z,-0.40
2018-03-30T04:00:08.076Z,-0.40
2018-03-30T04:01:08.132Z,-0.40
2018-03-30T04:02:08.045Z,-0.40
2018-03-30T04:03:05.519Z,-0.40
2018-03-30T04:04:06.196Z,-0.40
2018-03-30T04:05:08.383Z,-0.40
2018-03-30T04:06:05.635Z,-0.40
2018-03-30T04:07:05.237Z,-0.40
2018-03-30T04:08:06.111Z,-0.40
2018-03-30T04:09:05.614Z,-0.40
2018-03-30T04:10:05.557Z,-0.40
2018-03-30T04:11:06.063Z,-0.40
2018-03-30T04:12:05.599Z,-0.40
2018-03-30T04:13:05.330Z,-0.40
2018-03-30T04:14:08.388Z,-0.40
2018-03-30T04:15:10.952Z,-0.40
2018-03-30T04:16:12.895Z,-0.40
2018-03-30T04:17:13.632Z,-0.40
2018-03-30T04:18:05.961Z,-0.40
2018-03-30T04:19:05.527Z,-0.40
2018-03-30T04:20:08.566Z,-0.40
2018-03-30T04:21:10.958Z,-0.40
2018-03-30T04:22:06.219Z,-0.40
2018-03-30T04:23:05.800Z,-0.40
2018-03-30T04:24:05.529Z,-0.40
2018-03-30T04:25:11.429Z,-0.40
2018-03-30T04:26:05.799Z,-0.40
2018-03-30T04:27:06.085Z,-0.40
2018-03-30T04:28:06.087Z,-0.40
2018-03-30T04:29:05.705Z,-0.40
2018-03-30T04:30:10.339Z,-0.40
2018-03-30T04:31:05.832Z,-0.40
2018-03-30T04:32:05.670Z,-0.40
2018-03-30T04:33:05.288Z,-0.40
2018-03-30T04:34:06.064Z,-0.40
2018-03-30T04:35:05.692Z,-0.40
2018-03-30T04:36:05.343Z,-0.40
2018-03-30T04:37:06.149Z,-0.40
2018-03-30T04:38:05.735Z,-0.40
2018-03-30T04:39:06.366Z,-0.40
2018-03-30T04:40:08.541Z,-0.50
2018-03-30T04:41:05.967Z,-0.50
2018-03-30T04:42:05.621Z,-0.50
2018-03-30T04:43:05.382Z,-0.50
2018-03-30T04:44:05.977Z,-0.50
2018-03-30T04:45:05.901Z,-0.40
2018-03-30T04:46:13.044Z,-0.50
2018-03-30T04:47:05.547Z,-0.50
2018-03-30T04:48:08.095Z,-0.50
2018-03-30T04:49:05.493Z,-0.50
2018-03-30T04:50:08.519Z,-0.50
2018-03-30T04:51:05.878Z,-0.50
2018-03-30T04:52:10.693Z,-0.50
2018-03-30T04:53:11.245Z,-0.60
2018-03-30T04:54:05.903Z,-0.50
2018-03-30T04:55:13.089Z,-0.50
2018-03-30T04:56:05.588Z,-0.50
2018-03-30T04:57:05.496Z,-0.50
2018-03-30T04:58:06.511Z,-0.50
2018-03-30T04:59:06.170Z,-0.50
2018-03-30T05:00:05.816Z,-0.50
2018-03-30T05:01:05.362Z,-0.50
2018-03-30T05:02:10.149Z,-0.50
2018-03-30T05:03:09.019Z,-0.50
2018-03-30T05:04:05.511Z,-0.50
2018-03-30T05:05:06.120Z,-0.40
2018-03-30T05:06:05.924Z,-0.40
2018-03-30T05:07:08.167Z,-0.50
2018-03-30T05:08:06.117Z,-0.40
2018-03-30T05:09:05.199Z,-0.40
2018-03-30T05:10:05.852Z,-0.40
2018-03-30T05:11:05.615Z,-0.40
2018-03-30T05:12:05.491Z,-0.40
2018-03-30T05:13:06.051Z,-0.40
2018-03-30T05:14:05.594Z,-0.40
2018-03-30T05:15:11.034Z,-0.30
2018-03-30T05:16:05.464Z,-0.40
2018-03-30T05:17:08.839Z,-0.30
2018-03-30T05:18:05.682Z,-0.40
2018-03-30T05:19:05.394Z,-0.30
2018-03-30T05:20:05.430Z,-0.30
2018-03-30T05:21:07.119Z,-0.30
2018-03-30T05:22:05.966Z,-0.30
2018-03-30T05:23:08.198Z,-0.30
2018-03-30T05:24:05.566Z,-0.30
2018-03-30T05:25:06.151Z,-0.30
2018-03-30T05:26:13.357Z,-0.30
2018-03-30T05:27:06.094Z,-0.30
2018-03-30T05:28:05.665Z,-0.30
2018-03-30T05:29:08.691Z,-0.20
2018-03-30T05:30:05.883Z,-0.20
2018-03-30T05:31:10.590Z,-0.20
2018-03-30T05:32:05.860Z,-0.20
2018-03-30T05:33:10.528Z,-0.20
2018-03-30T05:34:06.165Z,-0.20
2018-03-30T05:35:05.763Z,-0.20
2018-03-30T05:36:05.405Z,-0.20
2018-03-30T05:37:05.969Z,-0.10
2018-03-30T05:38:05.772Z,-0.10
2018-03-30T05:39:05.792Z,-0.10
2018-03-30T05:40:06.054Z,0.00
2018-03-30T05:41:05.713Z,0.00
2018-03-30T05:42:05.325Z,0.10
2018-03-30T05:43:08.606Z,0.10
2018-03-30T05:44:11.119Z,0.20
2018-03-30T05:45:08.030Z,0.20
2018-03-30T05:46:05.449Z,0.20
2018-03-30T05:47:10.962Z,0.20
2018-03-30T05:48:07.919Z,0.30
2018-03-30T05:49:07.900Z,0.30
2018-03-30T05:50:05.603Z,0.30
2018-03-30T05:51:05.524Z,0.40
2018-03-30T05:52:05.801Z,0.40
2018-03-30T05:53:05.292Z,0.40
2018-03-30T05:54:06.188Z,0.50
2018-03-30T05:55:05.839Z,0.40
2018-03-30T05:56:18.150Z,0.50
2018-03-30T05:57:08.260Z,0.50
2018-03-30T05:58:08.256Z,0.50
2018-03-30T05:59:11.133Z,0.50
2018-03-30T06:00:07.348Z,0.50
2018-03-30T06:01:05.904Z,0.50
2018-03-30T06:02:05.782Z,0.50
2018-03-30T06:03:05.626Z,0.50
2018-03-30T06:04:05.575Z,0.50
2018-03-30T06:05:05.238Z,0.50
2018-03-30T06:06:06.201Z,0.60
2018-03-30T06:07:08.247Z,0.60
2018-03-30T06:08:09.926Z,0.60
2018-03-30T06:09:10.623Z,0.60
2018-03-30T06:10:10.770Z,0.60
2018-03-30T06:11:10.156Z,0.70
2018-03-30T06:12:05.585Z,0.70
2018-03-30T06:13:05.217Z,0.70
2018-03-30T06:14:08.373Z,0.80
2018-03-30T06:15:08.525Z,0.90
2018-03-30T06:16:06.514Z,0.90
2018-03-30T06:17:06.229Z,0.90
2018-03-30T06:18:08.673Z,1.00
2018-03-30T06:19:10.958Z,1.10
2018-03-30T06:20:05.385Z,1.10
2018-03-30T06:21:05.937Z,1.10
2018-03-30T06:22:08.122Z,1.20
2018-03-30T06:23:08.145Z,1.20
2018-03-30T06:24:05.661Z,1.20
2018-03-30T06:25:07.720Z,1.30
2018-03-30T06:26:05.757Z,1.30
2018-03-30T06:27:06.180Z,1.40
2018-03-30T06:28:05.744Z,1.40
2018-03-30T06:29:05.494Z,1.50
2018-03-30T06:30:06.056Z,1.60
2018-03-30T06:31:08.118Z,1.70
2018-03-30T06:32:07.900Z,1.90
2018-03-30T06:33:10.313Z,1.90
2018-03-30T06:34:08.121Z,2.00
2018-03-30T06:35:10.811Z,2.00
2018-03-30T06:36:07.873Z,2.00
2018-03-30T06:37:05.461Z,2.00
2018-03-30T06:38:05.985Z,2.10
2018-03-30T06:39:05.511Z,2.10
2018-03-30T06:40:10.777Z,1.70
2018-03-30T06:41:05.966Z,2.10
2018-03-30T06:42:08.092Z,2.20
2018-03-30T06:43:08.136Z,2.20
2018-03-30T06:44:05.596Z,2.20
2018-03-30T06:45:05.878Z,2.20
2018-03-30T06:46:05.397Z,2.30
2018-03-30T06:47:07.748Z,2.30
2018-03-30T06:48:05.403Z,2.30
2018-03-30T06:49:08.610Z,2.40
2018-03-30T06:50:05.958Z,2.40
2018-03-30T06:51:05.541Z,2.50
2018-03-30T06:52:06.084Z,2.50
2018-03-30T06:53:05.711Z,2.60
2018-03-30T06:54:05.353Z,2.70
2018-03-30T06:55:08.414Z,2.80
2018-03-30T06:56:10.793Z,2.80
2018-03-30T06:57:05.748Z,2.90
2018-03-30T06:58:05.263Z,2.90
2018-03-30T06:59:05.826Z,2.90
2018-03-30T07:00:08.200Z,3.20
2018-03-30T07:01:11.066Z,3.30
2018-03-30T07:02:05.634Z,3.30
2018-03-30T07:03:08.017Z,3.70
2018-03-30T07:04:10.456Z,3.90
2018-03-30T07:05:05.746Z,3.80
2018-03-30T07:06:08.530Z,4.20
2018-03-30T07:07:11.062Z,4.30
2018-03-30T07:08:10.572Z,4.30
2018-03-30T07:09:05.427Z,4.40
2018-03-30T07:10:06.108Z,4.50
2018-03-30T07:11:06.117Z,4.60
2018-03-30T07:12:05.641Z,4.70
2018-03-30T07:13:08.006Z,4.90
2018-03-30T07:14:05.383Z,4.90
2018-03-30T07:15:05.682Z,5.10
2018-03-30T07:16:07.808Z,5.30
2018-03-30T07:17:05.438Z,5.40
2018-03-30T07:18:11.160Z,5.60
2018-03-30T07:19:08.083Z,5.70
2018-03-30T07:20:08.062Z,5.80
2018-03-30T07:21:05.419Z,5.80
2018-03-30T07:22:08.518Z,6.00
2018-03-30T07:23:05.919Z,6.00
2018-03-30T07:24:08.204Z,6.10
2018-03-30T07:25:05.662Z,6.10
2018-03-30T07:26:10.719Z,6.20
2018-03-30T07:27:05.236Z,6.20
2018-03-30T07:28:06.118Z,6.30
2018-03-30T07:29:06.168Z,6.40
2018-03-30T07:30:05.816Z,6.40
2018-03-30T07:31:05.721Z,6.40
2018-03-30T07:32:05.689Z,6.50
2018-03-30T07:33:13.025Z,6.60
2018-03-30T07:34:08.365Z,6.60
2018-03-30T07:35:05.427Z,6.60
2018-03-30T07:36:06.288Z,6.60
2018-03-30T07:37:05.750Z,6.70
2018-03-30T07:38:05.186Z,6.70
2018-03-30T07:39:08.228Z,6.80
2018-03-30T07:40:05.580Z,6.80
2018-03-30T07:41:05.548Z,6.80
2018-03-30T07:42:05.701Z,6.80
2018-03-30T07:43:08.749Z,6.70
2018-03-30T07:44:05.123Z,6.70
2018-03-30T07:45:05.583Z,6.70
2018-03-30T07:46:08.577Z,6.50
2018-03-30T07:47:05.666Z,6.50
2018-03-30T07:48:06.002Z,6.50
2018-03-30T07:49:05.684Z,6.40
2018-03-30T07:50:05.923Z,6.40
2018-03-30T07:51:05.420Z,6.40
2018-03-30T07:52:07.704Z,6.30
2018-03-30T07:53:08.672Z,6.30
2018-03-30T07:54:08.740Z,6.30
2018-03-30T07:55:08.543Z,6.20
2018-03-30T07:56:08.039Z,6.20
2018-03-30T07:57:08.004Z,6.30
2018-03-30T07:58:08.007Z,6.30
2018-03-30T07:59:09.591Z,6.30
2018-03-30T08:00:08.625Z,6.30
2018-03-30T08:01:05.955Z,6.30
2018-03-30T08:02:08.117Z,6.30
2018-03-30T08:03:05.502Z,6.30
2018-03-30T08:04:06.053Z,6.30
2018-03-30T08:05:05.845Z,6.40
2018-03-30T08:06:05.384Z,6.40
2018-03-30T08:07:08.584Z,6.40
2018-03-30T08:08:08.606Z,6.40
2018-03-30T08:09:08.564Z,6.50
2018-03-30T08:10:08.642Z,6.50
2018-03-30T08:11:05.261Z,6.50
2018-03-30T08:12:06.094Z,6.60
2018-03-30T08:13:05.750Z,6.70
2018-03-30T08:14:05.448Z,6.70
2018-03-30T08:15:06.033Z,6.90
2018-03-30T08:16:08.079Z,7.00
2018-03-30T08:17:05.361Z,7.00
2018-03-30T08:18:08.455Z,7.10
2018-03-30T08:19:05.319Z,7.20
2018-03-30T08:20:06.061Z,7.20
2018-03-30T08:21:05.890Z,7.20
2018-03-30T08:22:05.451Z,7.30
2018-03-30T08:23:08.491Z,7.40
2018-03-30T08:24:06.347Z,7.40
2018-03-30T08:25:05.851Z,7.50
2018-03-30T08:26:07.954Z,7.70
2018-03-30T08:27:07.948Z,7.80
2018-03-30T08:28:10.423Z,7.80
2018-03-30T08:29:05.688Z,7.80
2018-03-30T08:30:08.163Z,7.90
2018-03-30T08:31:10.604Z,7.90
2018-03-30T08:32:05.657Z,8.00
2018-03-30T08:33:05.206Z,8.00
2018-03-30T08:34:08.283Z,8.20
2018-03-30T08:35:08.165Z,8.30
2018-03-30T08:36:05.657Z,8.30
2018-03-30T08:37:05.254Z,8.40
2018-03-30T08:38:05.186Z,8.40
2018-03-30T08:39:05.296Z,8.50
2018-03-30T08:40:05.915Z,8.60
2018-03-30T08:41:05.733Z,8.60
2018-03-30T08:42:05.403Z,8.70
2018-03-30T08:43:05.286Z,8.80
2018-03-30T08:44:10.913Z,8.80
2018-03-30T08:45:05.365Z,8.90
2018-03-30T08:46:08.524Z,8.90
2018-03-30T08:47:08.318Z,8.90
2018-03-30T08:48:05.976Z,8.90
2018-03-30T08:49:05.559Z,8.90
2018-03-30T08:50:05.482Z,8.90
2018-03-30T08:51:05.846Z,9.00
2018-03-30T08:52:08.124Z,9.00
2018-03-30T08:53:08.076Z,9.10
2018-03-30T08:54:08.009Z,9.10
2018-03-30T08:55:05.466Z,9.00
2018-03-30T08:56:08.605Z,9.10
2018-03-30T08:57:06.015Z,9.10
2018-03-30T08:58:05.810Z,9.10
2018-03-30T08:59:05.475Z,9.20
2018-03-30T09:00:05.328Z,9.20
2018-03-30T09:01:08.417Z,9.30
2018-03-30T09:02:10.832Z,9.30
2018-03-30T09:03:13.010Z,9.40
2018-03-30T09:04:05.534Z,9.40
2018-03-30T09:05:05.886Z,9.50
2018-03-30T09:06:08.632Z,9.50
2018-03-30T09:07:08.574Z,9.50
2018-03-30T09:08:06.725Z,9.60
2018-03-30T09:09:05.659Z,9.60
2018-03-30T09:10:05.446Z,9.50
2018-03-30T09:11:10.977Z,9.50
2018-03-30T09:12:05.496Z,9.50
2018-03-30T09:13:05.354Z,9.50
2018-03-30T09:14:06.046Z,9.50
2018-03-30T09:15:08.328Z,9.50
2018-03-30T09:16:08.354Z,9.60
2018-03-30T09:17:05.687Z,9.60
2018-03-30T09:18:05.687Z,9.60
2018-03-30T09:19:05.238Z,9.70
2018-03-30T09:20:08.290Z,9.80
2018-03-30T09:21:08.192Z,9.90
2018-03-30T09:22:08.042Z,9.90
2018-03-30T09:23:05.658Z,9.90
2018-03-30T09:24:08.696Z,10.10
2018-03-30T09:25:06.171Z,10.00
2018-03-30T09:26:08.232Z,10.10
2018-03-30T09:27:08.131Z,10.10
2018-03-30T09:28:10.765Z,10.20
2018-03-30T09:29:07.741Z,10.30
2018-03-30T09:30:08.068Z,10.30
2018-03-30T09:31:05.258Z,10.30
2018-03-30T09:32:05.812Z,10.30
2018-03-30T09:33:07.960Z,10.40
2018-03-30T09:34:07.965Z,10.40
2018-03-30T09:35:05.306Z,10.40
2018-03-30T09:36:08.458Z,10.50
2018-03-30T09:37:08.412Z,10.60
2018-03-30T09:38:08.355Z,10.60
2018-03-30T09:39:10.935Z,10.50
2018-03-30T09:40:08.183Z,10.60
2018-03-30T09:41:05.688Z,10.60
2018-03-30T09:42:10.327Z,10.60
2018-03-30T09:43:10.809Z,10.70
2018-03-30T09:44:05.277Z,10.70
2018-03-30T09:45:05.836Z,10.80
2018-03-30T09:46:05.381Z,10.80
2018-03-30T09:47:08.668Z,10.90
2018-03-30T09:48:11.229Z,10.90
2018-03-30T09:49:05.812Z,11.00
2018-03-30T09:50:10.506Z,11.00
2018-03-30T09:51:06.168Z,11.00
2018-03-30T09:52:05.913Z,11.00
2018-03-30T09:53:05.493Z,11.00
2018-03-30T09:54:05.271Z,11.00
2018-03-30T09:55:05.775Z,11.00
2018-03-30T09:56:05.486Z,11.10
2018-03-30T09:57:08.734Z,11.10
2018-03-30T09:58:10.224Z,11.10
2018-03-30T09:59:05.729Z,11.10
2018-03-30T10:00:05.304Z,11.20
2018-03-30T10:01:06.021Z,11.20
2018-03-30T10:02:10.621Z,11.20
2018-03-30T10:03:05.573Z,11.20
2018-03-30T10:04:05.286Z,11.30
2018-03-30T10:05:05.923Z,11.20
2018-03-30T10:06:06.022Z,11.20
2018-03-30T10:07:08.562Z,11.10
2018-03-30T10:08:08.690Z,11.10
2018-03-30T10:09:05.204Z,11.10
2018-03-30T10:10:05.849Z,11.10
2018-03-30T10:11:05.476Z,11.10
2018-03-30T10:12:06.046Z,11.20
2018-03-30T10:13:05.559Z,11.20
2018-03-30T10:14:06.064Z,11.20
2018-03-30T10:15:05.575Z,11.30
2018-03-30T10:16:07.629Z,11.40
2018-03-30T10:17:06.115Z,11.40
2018-03-30T10:18:05.847Z,11.40
2018-03-30T10:19:08.173Z,11.50
2018-03-30T10:20:06.077Z,11.50
2018-03-30T10:21:05.590Z,11.50
2018-03-30T10:22:05.332Z,11.60
2018-03-30T10:23:10.377Z,11.70
2018-03-30T10:24:05.927Z,11.70
2018-03-30T10:25:08.028Z,11.80
2018-03-30T10:26:08.015Z,11.80
2018-03-30T10:27:07.875Z,11.90
2018-03-30T10:28:07.951Z,12.00
2018-03-30T10:29:05.986Z,11.90
2018-03-30T10:30:08.160Z,12.10
2018-03-30T10:31:05.593Z,12.10
2018-03-30T10:32:10.393Z,12.10
2018-03-30T10:33:05.795Z,12.10
2018-03-30T10:34:10.747Z,12.20
2018-03-30T10:35:06.037Z,12.20
2018-03-30T10:36:05.614Z,12.20
2018-03-30T10:37:11.509Z,12.30
2018-03-30T10:38:08.415Z,12.30
2018-03-30T10:39:10.977Z,12.40
2018-03-30T10:40:05.466Z,12.30
2018-03-30T10:41:12.948Z,12.40
2018-03-30T10:42:10.312Z,12.40
2018-03-30T10:43:05.718Z,12.40
2018-03-30T10:44:05.255Z,12.50
2018-03-30T10:45:11.036Z,12.50
2018-03-30T10:46:06.100Z,12.50
2018-03-30T10:47:08.279Z,12.50
2018-03-30T10:48:05.629Z,12.50
2018-03-30T10:49:07.842Z,12.50
2018-03-30T10:50:07.816Z,12.50
2018-03-30T10:51:08.102Z,12.40
2018-03-30T10:52:05.717Z,12.40
2018-03-30T10:53:05.464Z,12.40
2018-03-30T10:54:08.713Z,12.40
2018-03-30T10:55:05.969Z,12.40
2018-03-30T10:56:05.532Z,12.40
2018-03-30T10:57:05.262Z,12.40
2018-03-30T10:58:08.458Z,12.30
2018-03-30T10:59:05.920Z,12.30
2018-03-30T11:00:05.413Z,12.30
2018-03-30T11:01:05.757Z,12.20
2018-03-30T11:02:05.269Z,12.10
2018-03-30T11:03:05.755Z,12.10
2018-03-30T11:04:08.161Z,12.00
2018-03-30T11:05:08.329Z,12.00
2018-03-30T11:06:05.998Z,11.90
2018-03-30T11:07:10.660Z,12.00
2018-03-30T11:08:06.120Z,12.00
2018-03-30T11:09:05.665Z,12.00
2018-03-30T11:10:05.201Z,12.00
2018-03-30T11:11:08.325Z,12.10
2018-03-30T11:12:05.954Z,12.00
2018-03-30T11:13:05.623Z,12.10
2018-03-30T11:14:10.130Z,12.10
2018-03-30T11:15:05.790Z,12.10
2018-03-30T11:16:05.524Z,12.00
2018-03-30T11:17:07.929Z,12.00
2018-03-30T11:18:05.324Z,12.00
2018-03-30T11:19:07.721Z,12.00
2018-03-30T11:20:05.111Z,12.00
2018-03-30T11:21:07.949Z,12.10
2018-03-30T11:22:05.379Z,12.10
2018-03-30T11:23:06.098Z,12.10
2018-03-30T11:24:05.978Z,12.10
2018-03-30T11:25:08.078Z,12.10
2018-03-30T11:26:05.455Z,12.10
2018-03-30T11:27:05.703Z,12.10
2018-03-30T11:28:05.580Z,12.10
2018-03-30T11:29:05.154Z,12.10
2018-03-30T11:30:10.711Z,12.10
2018-03-30T11:31:06.168Z,12.10
2018-03-30T11:32:06.014Z,12.10
2018-03-30T11:33:06.608Z,12.00
2018-03-30T11:34:08.763Z,11.90
2018-03-30T11:35:05.416Z,11.90
2018-03-30T11:36:06.021Z,11.90
2018-03-30T11:37:05.631Z,11.90
2018-03-30T11:38:12.829Z,11.80
2018-03-30T11:39:12.984Z,11.80
2018-03-30T11:40:05.469Z,11.80
2018-03-30T11:41:06.034Z,11.90
2018-03-30T11:42:05.573Z,11.90
2018-03-30T11:43:06.148Z,11.90
2018-03-30T11:44:08.249Z,11.90
2018-03-30T11:45:05.589Z,11.80
2018-03-30T11:46:05.133Z,11.90
2018-03-30T11:47:06.382Z,11.90
2018-03-30T11:48:05.935Z,11.90
2018-03-30T11:49:05.466Z,11.90
2018-03-30T11:50:06.148Z,11.90
2018-03-30T11:51:05.784Z,11.80
2018-03-30T11:52:07.845Z,11.80
2018-03-30T11:53:07.895Z,11.90
2018-03-30T11:54:08.332Z,11.90
2018-03-30T11:55:05.628Z,11.90
2018-03-30T11:56:07.800Z,12.00
2018-03-30T11:57:05.216Z,12.00
2018-03-30T11:58:05.833Z,12.00
2018-03-30T11:59:07.873Z,12.00
2018-03-30T12:00:05.302Z,12.00
2018-03-30T12:01:07.809Z,12.00
2018-03-30T12:02:05.221Z,12.00
2018-03-30T12:03:05.377Z,12.00
2018-03-30T12:04:05.420Z,12.10
2018-03-30T12:05:08.483Z,12.20
2018-03-30T12:06:08.635Z,12.20
2018-03-30T12:07:06.087Z,12.20
2018-03-30T12:08:08.246Z,12.40
2018-03-30T12:09:08.251Z,12.50
2018-03-30T12:10:09.432Z,12.50
2018-03-30T12:11:05.820Z,12.50
2018-03-30T12:12:05.418Z,12.50
2018-03-30T12:13:08.469Z,12.70
2018-03-30T12:14:08.371Z,12.70
2018-03-30T12:15:05.927Z,12.70
2018-03-30T12:16:07.983Z,12.80
2018-03-30T12:17:05.391Z,12.70
2018-03-30T12:18:05.875Z,12.80
2018-03-30T12:19:05.890Z,12.80
2018-03-30T12:20:07.958Z,12.90
2018-03-30T12:21:05.516Z,12.90
2018-03-30T12:22:05.991Z,13.00
2018-03-30T12:23:05.608Z,13.00
2018-03-30T12:24:05.106Z,13.00
2018-03-30T12:25:08.337Z,13.00
2018-03-30T12:26:05.859Z,13.00
2018-03-30T12:27:05.442Z,13.10
2018-03-30T12:28:08.093Z,13.20
2018-03-30T12:29:08.087Z,13.20
2018-03-30T12:30:05.722Z,13.20
2018-03-30T12:31:05.325Z,13.20
2018-03-30T12:32:06.007Z,13.10
2018-03-30T12:33:10.703Z,13.20
2018-03-30T12:34:05.183Z,13.20
2018-03-30T12:35:05.785Z,13.20
2018-03-30T12:36:05.432Z,13.20
2018-03-30T12:37:08.589Z,13.30
2018-03-30T12:38:06.013Z,13.30
2018-03-30T12:39:05.553Z,13.30
2018-03-30T12:40:10.242Z,13.40
2018-03-30T12:41:05.659Z,13.30
2018-03-30T12:42:07.803Z,13.40
2018-03-30T12:43:05.226Z,13.40
2018-03-30T12:44:05.771Z,13.40
2018-03-30T12:45:08.026Z,13.50
2018-03-30T12:46:05.550Z,13.50
2018-03-30T12:47:12.720Z,13.60
2018-03-30T12:48:12.729Z,13.60
2018-03-30T12:49:07.739Z,13.60
2018-03-30T12:50:05.135Z,13.60
2018-03-30T12:51:05.672Z,13.70
2018-03-30T12:52:10.296Z,13.60
2018-03-30T12:53:05.740Z,13.60
2018-03-30T12:54:05.236Z,13.60
2018-03-30T12:55:05.781Z,13.70
2018-03-30T12:56:07.824Z,13.70
2018-03-30T12:57:07.854Z,13.70
2018-03-30T12:58:05.281Z,13.70
2018-03-30T12:59:08.457Z,13.70
2018-03-30T13:00:06.171Z,13.60
2018-03-30T13:01:05.710Z,13.60
2018-03-30T13:02:07.963Z,13.60
2018-03-30T13:03:05.447Z,13.60
2018-03-30T13:04:06.263Z,13.60
2018-03-30T13:05:10.960Z,13.70